sensor_id;sensor_type;location;lat;lon;timestamp;pressure;altitude;pressure_sealevel;temperature;humidity
63339;BME280;47485;51.378;-1.342;2023-03-03T00:00:45;101313.22;;;2.16;27.59
63339;BME280;47485;51.378;-1.342;2023-03-03T00:03:16;101317.74;;;0.86;29.55
63339;BME280;47485;51.378;-1.342;2023-03-03T00:05:44;101317.91;;;1.38;29.33
63339;BME280;47485;51.378;-1.342;2023-03-03T00:08:11;101318.76;;;1.86;28.72
63339;BME280;47485;51.378;-1.342;2023-03-03T00:10:38;101318.02;;;3.05;26.94
63339;BME280;47485;51.378;-1.342;2023-03-03T00:13:12;101322.91;;;2.16;27.06
63339;BME280;47485;51.378;-1.342;2023-03-03T00:15:40;101324.51;;;2.84;26.55
63339;BME280;47485;51.378;-1.342;2023-03-03T00:18:17;101326.71;;;1.67;27.00
63339;BME280;47485;51.378;-1.342;2023-03-03T00:20:48;101324.09;;;2.74;26.23
63339;BME280;47485;51.378;-1.342;2023-03-03T00:23:25;101325.31;;;3.46;25.59
63339;BME280;47485;51.378;-1.342;2023-03-03T00:25:55;101325.85;;;3.30;25.75
63339;BME280;47485;51.378;-1.342;2023-03-03T00:28:25;101326.88;;;3.92;25.54
63339;BME280;47485;51.378;-1.342;2023-03-03T00:30:55;101323.44;;;3.96;25.48
63339;BME280;47485;51.378;-1.342;2023-03-03T00:33:26;101327.54;;;3.39;25.62
63339;BME280;47485;51.378;-1.342;2023-03-03T00:35:55;101328.28;;;5.25;24.60
63339;BME280;47485;51.378;-1.342;2023-03-03T00:38:22;101322.15;;;6.99;23.21
63339;BME280;47485;51.378;-1.342;2023-03-03T00:40:50;101324.91;;;3.14;25.29
63339;BME280;47485;51.378;-1.342;2023-03-03T00:43:20;101325.69;;;2.55;25.99
63339;BME280;47485;51.378;-1.342;2023-03-03T00:45:48;101324.13;;;2.53;25.90
63339;BME280;47485;51.378;-1.342;2023-03-03T00:48:21;101322.36;;;3.67;25.31
63339;BME280;47485;51.378;-1.342;2023-03-03T00:50:49;101320.68;;;3.11;25.25
63339;BME280;47485;51.378;-1.342;2023-03-03T00:53:18;101323.44;;;3.12;25.01
63339;BME280;47485;51.378;-1.342;2023-03-03T00:55:47;101325.16;;;3.69;24.66
63339;BME280;47485;51.378;-1.342;2023-03-03T00:58:14;101329.06;;;5.85;23.67
63339;BME280;47485;51.378;-1.342;2023-03-03T01:00:42;101332.39;;;4.46;24.24
63339;BME280;47485;51.378;-1.342;2023-03-03T01:03:12;101336.25;;;4.60;24.17
63339;BME280;47485;51.378;-1.342;2023-03-03T01:05:41;101338.40;;;3.89;24.78
63339;BME280;47485;51.378;-1.342;2023-03-03T01:08:08;101336.03;;;3.53;24.14
63339;BME280;47485;51.378;-1.342;2023-03-03T01:10:37;101338.35;;;5.16;23.48
63339;BME280;47485;51.378;-1.342;2023-03-03T01:13:05;101341.96;;;4.75;24.63
63339;BME280;47485;51.378;-1.342;2023-03-03T01:15:33;101336.83;;;5.25;23.50
63339;BME280;47485;51.378;-1.342;2023-03-03T01:17:59;101339.88;;;5.57;23.30
63339;BME280;47485;51.378;-1.342;2023-03-03T01:20:27;101345.96;;;4.09;24.40
63339;BME280;47485;51.378;-1.342;2023-03-03T01:22:55;101347.20;;;4.82;24.75
63339;BME280;47485;51.378;-1.342;2023-03-03T01:25:22;101348.78;;;4.94;24.46
63339;BME280;47485;51.378;-1.342;2023-03-03T01:27:48;101345.44;;;5.37;24.45
63339;BME280;47485;51.378;-1.342;2023-03-03T01:30:15;101348.44;;;4.10;25.58
63339;BME280;47485;51.378;-1.342;2023-03-03T01:32:43;101350.01;;;4.33;25.82
63339;BME280;47485;51.378;-1.342;2023-03-03T01:35:11;101353.88;;;1.57;27.11
63339;BME280;47485;51.378;-1.342;2023-03-03T01:37:38;101354.07;;;2.38;26.52
63339;BME280;47485;51.378;-1.342;2023-03-03T01:40:10;101355.76;;;3.26;26.53
63339;BME280;47485;51.378;-1.342;2023-03-03T01:42:38;101353.51;;;3.69;25.87
63339;BME280;47485;51.378;-1.342;2023-03-03T01:45:22;101356.48;;;3.01;26.54
63339;BME280;47485;51.378;-1.342;2023-03-03T01:47:55;101358.22;;;4.19;25.65
63339;BME280;47485;51.378;-1.342;2023-03-03T01:50:32;101355.29;;;2.89;26.26
63339;BME280;47485;51.378;-1.342;2023-03-03T01:53:05;101354.48;;;3.86;26.78
63339;BME280;47485;51.378;-1.342;2023-03-03T01:55:39;101349.37;;;4.26;26.24
63339;BME280;47485;51.378;-1.342;2023-03-03T01:58:14;101348.65;;;5.25;25.88
63339;BME280;47485;51.378;-1.342;2023-03-03T02:00:47;101349.32;;;3.59;26.31
63339;BME280;47485;51.378;-1.342;2023-03-03T02:03:16;101350.92;;;3.11;26.80
63339;BME280;47485;51.378;-1.342;2023-03-03T02:05:44;101353.59;;;3.71;26.37
63339;BME280;47485;51.378;-1.342;2023-03-03T02:08:15;101354.93;;;3.39;26.25
63339;BME280;47485;51.378;-1.342;2023-03-03T02:10:46;101350.66;;;4.74;25.79
63339;BME280;47485;51.378;-1.342;2023-03-03T02:13:14;101352.67;;;5.12;25.69
63339;BME280;47485;51.378;-1.342;2023-03-03T02:15:41;101355.18;;;2.48;26.07
63339;BME280;47485;51.378;-1.342;2023-03-03T02:18:11;101350.58;;;4.98;25.08
63339;BME280;47485;51.378;-1.342;2023-03-03T02:20:45;101355.74;;;3.24;25.88
63339;BME280;47485;51.378;-1.342;2023-03-03T02:23:19;101360.10;;;4.60;25.64
63339;BME280;47485;51.378;-1.342;2023-03-03T02:26:09;101356.79;;;4.88;25.44
63339;BME280;47485;51.378;-1.342;2023-03-03T02:28:37;101358.26;;;1.96;27.12
63339;BME280;47485;51.378;-1.342;2023-03-03T02:31:06;101362.66;;;2.95;26.96
63339;BME280;47485;51.378;-1.342;2023-03-03T02:33:35;101365.90;;;2.82;26.78
63339;BME280;47485;51.378;-1.342;2023-03-03T02:36:02;101365.90;;;3.61;26.15
63339;BME280;47485;51.378;-1.342;2023-03-03T02:38:36;101364.35;;;1.56;27.88
63339;BME280;47485;51.378;-1.342;2023-03-03T02:41:10;101369.46;;;3.95;27.09
63339;BME280;47485;51.378;-1.342;2023-03-03T02:43:43;101373.30;;;2.97;27.07
63339;BME280;47485;51.378;-1.342;2023-03-03T02:46:12;101372.29;;;2.33;27.52
63339;BME280;47485;51.378;-1.342;2023-03-03T02:48:39;101377.89;;;4.27;27.85
63339;BME280;47485;51.378;-1.342;2023-03-03T02:51:05;101380.88;;;0.91;28.90
63339;BME280;47485;51.378;-1.342;2023-03-03T02:53:32;101377.20;;;2.17;29.05
63339;BME280;47485;51.378;-1.342;2023-03-03T02:55:59;101373.57;;;0.83;28.43
63339;BME280;47485;51.378;-1.342;2023-03-03T02:58:26;101371.81;;;1.57;28.08
63339;BME280;47485;51.378;-1.342;2023-03-03T03:00:54;101369.16;;;3.43;26.60
63339;BME280;47485;51.378;-1.342;2023-03-03T03:03:20;101371.33;;;3.92;26.87
63339;BME280;47485;51.378;-1.342;2023-03-03T03:05:47;101375.10;;;2.12;27.54
63339;BME280;47485;51.378;-1.342;2023-03-03T03:08:14;101373.68;;;1.90;27.45
63339;BME280;47485;51.378;-1.342;2023-03-03T03:10:46;101376.40;;;0.53;28.59
63339;BME280;47485;51.378;-1.342;2023-03-03T03:13:13;101372.98;;;2.80;27.32
63339;BME280;47485;51.378;-1.342;2023-03-03T03:15:40;101374.21;;;1.55;28.69
63339;BME280;47485;51.378;-1.342;2023-03-03T03:18:07;101371.53;;;2.54;27.30
63339;BME280;47485;51.378;-1.342;2023-03-03T03:20:35;101371.01;;;3.95;26.95
63339;BME280;47485;51.378;-1.342;2023-03-03T03:23:02;101375.90;;;1.52;27.77
63339;BME280;47485;51.378;-1.342;2023-03-03T03:25:29;101376.61;;;0.98;29.68
63339;BME280;47485;51.378;-1.342;2023-03-03T03:27:56;101379.01;;;0.47;30.31
63339;BME280;47485;51.378;-1.342;2023-03-03T03:30:23;101371.29;;;2.21;29.26
63339;BME280;47485;51.378;-1.342;2023-03-03T03:32:50;101374.64;;;-0.62;31.48
63339;BME280;47485;51.378;-1.342;2023-03-03T03:35:17;101377.07;;;0.75;30.27
63339;BME280;47485;51.378;-1.342;2023-03-03T03:37:44;101378.45;;;0.33;29.68
63339;BME280;47485;51.378;-1.342;2023-03-03T03:40:12;101377.41;;;2.33;28.89
63339;BME280;47485;51.378;-1.342;2023-03-03T03:42:39;101376.09;;;2.11;29.25
63339;BME280;47485;51.378;-1.342;2023-03-03T03:45:07;101368.73;;;2.56;28.78
63339;BME280;47485;51.378;-1.342;2023-03-03T03:47:34;101369.84;;;2.69;27.84
63339;BME280;47485;51.378;-1.342;2023-03-03T03:50:00;101375.31;;;-0.09;29.73
63339;BME280;47485;51.378;-1.342;2023-03-03T03:52:27;101370.27;;;2.01;27.92
63339;BME280;47485;51.378;-1.342;2023-03-03T03:54:55;101367.04;;;3.87;26.37
63339;BME280;47485;51.378;-1.342;2023-03-03T03:57:22;101365.40;;;4.48;26.14
63339;BME280;47485;51.378;-1.342;2023-03-03T03:59:49;101365.42;;;4.13;26.33
63339;BME280;47485;51.378;-1.342;2023-03-03T04:02:16;101368.60;;;1.11;28.43
63339;BME280;47485;51.378;-1.342;2023-03-03T04:04:42;101365.43;;;2.96;27.43
63339;BME280;47485;51.378;-1.342;2023-03-03T04:07:09;101363.99;;;3.43;26.53
63339;BME280;47485;51.378;-1.342;2023-03-03T04:09:36;101364.25;;;3.40;26.04
63339;BME280;47485;51.378;-1.342;2023-03-03T04:12:03;101366.21;;;5.07;26.06
63339;BME280;47485;51.378;-1.342;2023-03-03T04:14:29;101362.88;;;0.99;28.00
63339;BME280;47485;51.378;-1.342;2023-03-03T04:16:57;101363.09;;;3.34;27.51
63339;BME280;47485;51.378;-1.342;2023-03-03T04:19:24;101363.25;;;1.59;28.13
63339;BME280;47485;51.378;-1.342;2023-03-03T04:21:51;101364.48;;;1.75;27.77
63339;BME280;47485;51.378;-1.342;2023-03-03T04:24:17;101363.25;;;1.70;27.60
63339;BME280;47485;51.378;-1.342;2023-03-03T04:26:44;101361.69;;;3.07;26.55
63339;BME280;47485;51.378;-1.342;2023-03-03T04:29:11;101361.18;;;3.13;26.38
63339;BME280;47485;51.378;-1.342;2023-03-03T04:31:38;101361.86;;;1.48;27.05
63339;BME280;47485;51.378;-1.342;2023-03-03T04:34:04;101359.97;;;4.11;25.53
63339;BME280;47485;51.378;-1.342;2023-03-03T04:36:31;101357.37;;;3.42;25.27
63339;BME280;47485;51.378;-1.342;2023-03-03T04:38:58;101362.14;;;4.89;24.87
63339;BME280;47485;51.378;-1.342;2023-03-03T04:41:25;101361.12;;;4.00;25.63
63339;BME280;47485;51.378;-1.342;2023-03-03T04:43:52;101363.40;;;4.60;25.66
63339;BME280;47485;51.378;-1.342;2023-03-03T04:46:20;101359.90;;;3.75;25.80
63339;BME280;47485;51.378;-1.342;2023-03-03T04:48:46;101368.80;;;1.82;27.07
63339;BME280;47485;51.378;-1.342;2023-03-03T04:51:13;101363.59;;;2.16;26.87
63339;BME280;47485;51.378;-1.342;2023-03-03T04:53:40;101358.77;;;3.29;25.94
63339;BME280;47485;51.378;-1.342;2023-03-03T04:56:07;101356.53;;;3.83;25.16
63339;BME280;47485;51.378;-1.342;2023-03-03T04:58:34;101359.58;;;3.56;26.01
63339;BME280;47485;51.378;-1.342;2023-03-03T05:01:00;101361.44;;;1.34;27.91
63339;BME280;47485;51.378;-1.342;2023-03-03T05:03:27;101366.82;;;4.52;26.53
63339;BME280;47485;51.378;-1.342;2023-03-03T05:05:55;101367.86;;;1.20;28.59
63339;BME280;47485;51.378;-1.342;2023-03-03T05:08:22;101370.47;;;0.68;29.47
63339;BME280;47485;51.378;-1.342;2023-03-03T05:10:51;101366.83;;;2.83;28.07
63339;BME280;47485;51.378;-1.342;2023-03-03T05:13:18;101361.78;;;2.96;27.27
63339;BME280;47485;51.378;-1.342;2023-03-03T05:15:49;101363.45;;;1.71;26.80
63339;BME280;47485;51.378;-1.342;2023-03-03T05:18:17;101360.16;;;3.11;26.97
63339;BME280;47485;51.378;-1.342;2023-03-03T05:20:44;101356.16;;;3.77;26.14
63339;BME280;47485;51.378;-1.342;2023-03-03T05:23:11;101358.66;;;3.28;25.82
63339;BME280;47485;51.378;-1.342;2023-03-03T05:25:39;101356.74;;;3.10;26.64
63339;BME280;47485;51.378;-1.342;2023-03-03T05:28:06;101356.90;;;1.87;27.64
63339;BME280;47485;51.378;-1.342;2023-03-03T05:30:33;101357.39;;;3.43;26.84
63339;BME280;47485;51.378;-1.342;2023-03-03T05:33:00;101355.90;;;2.05;26.99
63339;BME280;47485;51.378;-1.342;2023-03-03T05:35:27;101358.29;;;2.65;27.26
63339;BME280;47485;51.378;-1.342;2023-03-03T05:37:55;101353.07;;;3.72;26.02
63339;BME280;47485;51.378;-1.342;2023-03-03T05:40:22;101353.54;;;3.51;25.63
63339;BME280;47485;51.378;-1.342;2023-03-03T05:42:48;101356.48;;;3.78;26.54
63339;BME280;47485;51.378;-1.342;2023-03-03T05:45:15;101360.70;;;1.58;27.83
63339;BME280;47485;51.378;-1.342;2023-03-03T05:47:42;101358.62;;;1.87;26.78
63339;BME280;47485;51.378;-1.342;2023-03-03T05:50:10;101361.62;;;3.33;26.14
63339;BME280;47485;51.378;-1.342;2023-03-03T05:52:36;101361.22;;;3.06;26.33
63339;BME280;47485;51.378;-1.342;2023-03-03T05:55:03;101361.20;;;2.71;26.95
63339;BME280;47485;51.378;-1.342;2023-03-03T05:57:31;101362.22;;;1.79;26.92
63339;BME280;47485;51.378;-1.342;2023-03-03T05:59:57;101361.66;;;2.96;26.50
63339;BME280;47485;51.378;-1.342;2023-03-03T06:02:24;101361.70;;;3.43;26.44
63339;BME280;47485;51.378;-1.342;2023-03-03T06:04:52;101364.11;;;3.60;26.67
63339;BME280;47485;51.378;-1.342;2023-03-03T06:07:19;101363.71;;;3.71;26.38
63339;BME280;47485;51.378;-1.342;2023-03-03T06:09:46;101366.62;;;1.47;28.32
63339;BME280;47485;51.378;-1.342;2023-03-03T06:12:13;101366.75;;;2.28;27.94
63339;BME280;47485;51.378;-1.342;2023-03-03T06:14:40;101375.18;;;0.01;29.81
63339;BME280;47485;51.378;-1.342;2023-03-03T06:17:07;101372.74;;;1.59;28.00
63339;BME280;47485;51.378;-1.342;2023-03-03T06:19:35;101375.26;;;2.44;27.30
63339;BME280;47485;51.378;-1.342;2023-03-03T06:22:02;101375.78;;;1.92;28.57
63339;BME280;47485;51.378;-1.342;2023-03-03T06:24:29;101377.43;;;1.47;29.23
63339;BME280;47485;51.378;-1.342;2023-03-03T06:26:56;101381.27;;;2.61;29.23
63339;BME280;47485;51.378;-1.342;2023-03-03T06:29:23;101379.62;;;0.72;29.03
63339;BME280;47485;51.378;-1.342;2023-03-03T06:31:50;101378.43;;;1.03;28.62
63339;BME280;47485;51.378;-1.342;2023-03-03T06:34:17;101376.70;;;2.73;27.58
63339;BME280;47485;51.378;-1.342;2023-03-03T06:36:43;101374.05;;;3.73;26.71
63339;BME280;47485;51.378;-1.342;2023-03-03T06:39:10;101379.29;;;2.29;27.95
63339;BME280;47485;51.378;-1.342;2023-03-03T06:41:37;101375.55;;;0.60;27.27
63339;BME280;47485;51.378;-1.342;2023-03-03T06:44:04;101374.46;;;2.91;26.42
63339;BME280;47485;51.378;-1.342;2023-03-03T06:46:31;101374.76;;;3.61;25.58
63339;BME280;47485;51.378;-1.342;2023-03-03T06:48:57;101380.26;;;1.59;26.74
63339;BME280;47485;51.378;-1.342;2023-03-03T06:51:29;101382.68;;;2.14;26.22
63339;BME280;47485;51.378;-1.342;2023-03-03T06:54:00;101384.83;;;2.43;25.90
63339;BME280;47485;51.378;-1.342;2023-03-03T06:56:28;101384.35;;;4.92;25.05
63339;BME280;47485;51.378;-1.342;2023-03-03T06:58:57;101388.97;;;3.23;25.22
63339;BME280;47485;51.378;-1.342;2023-03-03T07:01:25;101391.86;;;3.05;25.52
63339;BME280;47485;51.378;-1.342;2023-03-03T07:03:54;101391.06;;;4.42;25.69
63339;BME280;47485;51.378;-1.342;2023-03-03T07:06:25;101394.98;;;2.78;26.32
63339;BME280;47485;51.378;-1.342;2023-03-03T07:08:54;101396.98;;;3.48;25.33
63339;BME280;47485;51.378;-1.342;2023-03-03T07:11:22;101401.36;;;2.86;25.96
63339;BME280;47485;51.378;-1.342;2023-03-03T07:13:50;101400.77;;;3.44;25.68
63339;BME280;47485;51.378;-1.342;2023-03-03T07:16:19;101408.88;;;2.18;27.22
63339;BME280;47485;51.378;-1.342;2023-03-03T07:18:51;101416.89;;;-0.06;28.58
63339;BME280;47485;51.378;-1.342;2023-03-03T07:21:20;101418.19;;;-1.76;31.05
63339;BME280;47485;51.378;-1.342;2023-03-03T07:23:49;101423.61;;;0.03;28.88
63339;BME280;47485;51.378;-1.342;2023-03-03T07:26:18;101418.60;;;3.31;26.98
63339;BME280;47485;51.378;-1.342;2023-03-03T07:28:53;101417.31;;;3.22;25.72
63339;BME280;47485;51.378;-1.342;2023-03-03T07:31:39;101420.95;;;1.90;25.71
63339;BME280;47485;51.378;-1.342;2023-03-03T07:34:16;101420.89;;;1.68;25.78
63339;BME280;47485;51.378;-1.342;2023-03-03T07:36:45;101424.44;;;2.37;26.62
63339;BME280;47485;51.378;-1.342;2023-03-03T07:39:24;101425.24;;;2.19;26.85
63339;BME280;47485;51.378;-1.342;2023-03-03T07:41:59;101421.23;;;2.93;26.17
63339;BME280;47485;51.378;-1.342;2023-03-03T07:44:33;101424.20;;;2.27;26.02
63339;BME280;47485;51.378;-1.342;2023-03-03T07:47:14;101426.02;;;3.26;25.80
63339;BME280;47485;51.378;-1.342;2023-03-03T07:49:42;101430.03;;;4.24;24.84
63339;BME280;47485;51.378;-1.342;2023-03-03T07:52:27;101429.18;;;5.56;24.35
63339;BME280;47485;51.378;-1.342;2023-03-03T07:54:56;101436.29;;;4.38;24.54
63339;BME280;47485;51.378;-1.342;2023-03-03T07:57:26;101440.42;;;4.67;26.26
63339;BME280;47485;51.378;-1.342;2023-03-03T07:59:59;101444.45;;;1.32;27.61
63339;BME280;47485;51.378;-1.342;2023-03-03T08:02:36;101446.38;;;2.53;26.94
63339;BME280;47485;51.378;-1.342;2023-03-03T08:05:22;101448.49;;;4.88;25.66
63339;BME280;47485;51.378;-1.342;2023-03-03T08:07:50;101454.41;;;4.72;25.90
63339;BME280;47485;51.378;-1.342;2023-03-03T08:10:33;101450.86;;;2.11;27.10
63339;BME280;47485;51.378;-1.342;2023-03-03T08:13:12;101456.78;;;3.11;27.83
63339;BME280;47485;51.378;-1.342;2023-03-03T08:15:41;101462.98;;;1.02;29.46
63339;BME280;47485;51.378;-1.342;2023-03-03T08:18:18;101460.60;;;4.01;27.68
63339;BME280;47485;51.378;-1.342;2023-03-03T08:20:48;101461.62;;;2.64;27.89
63339;BME280;47485;51.378;-1.342;2023-03-03T08:23:16;101465.12;;;4.43;27.21
63339;BME280;47485;51.378;-1.342;2023-03-03T08:25:44;101462.18;;;3.64;27.25
63339;BME280;47485;51.378;-1.342;2023-03-03T08:28:11;101462.43;;;3.15;27.90
63339;BME280;47485;51.378;-1.342;2023-03-03T08:30:39;101464.88;;;4.49;27.05
63339;BME280;47485;51.378;-1.342;2023-03-03T08:33:06;101464.63;;;5.50;26.61
63339;BME280;47485;51.378;-1.342;2023-03-03T08:35:33;101466.80;;;3.59;27.06
63339;BME280;47485;51.378;-1.342;2023-03-03T08:38:00;101470.26;;;3.77;27.20
63339;BME280;47485;51.378;-1.342;2023-03-03T08:40:27;101471.28;;;5.31;26.17
63339;BME280;47485;51.378;-1.342;2023-03-03T08:42:54;101474.28;;;4.79;26.84
63339;BME280;47485;51.378;-1.342;2023-03-03T08:45:21;101473.25;;;3.79;27.17
63339;BME280;47485;51.378;-1.342;2023-03-03T08:47:48;101477.53;;;5.35;26.84
63339;BME280;47485;51.378;-1.342;2023-03-03T08:50:16;101485.52;;;0.23;31.05
63339;BME280;47485;51.378;-1.342;2023-03-03T08:52:43;101477.41;;;3.12;28.19
63339;BME280;47485;51.378;-1.342;2023-03-03T08:55:12;101479.30;;;4.39;27.79
63339;BME280;47485;51.378;-1.342;2023-03-03T08:57:39;101481.27;;;3.17;28.02
63339;BME280;47485;51.378;-1.342;2023-03-03T09:00:09;101488.23;;;3.19;29.26
63339;BME280;47485;51.378;-1.342;2023-03-03T09:02:37;101487.15;;;3.50;28.86
63339;BME280;47485;51.378;-1.342;2023-03-03T09:05:04;101484.20;;;3.61;27.59
63339;BME280;47485;51.378;-1.342;2023-03-03T09:07:31;101488.87;;;2.74;28.37
63339;BME280;47485;51.378;-1.342;2023-03-03T09:09:59;101488.66;;;2.34;28.45
63339;BME280;47485;51.378;-1.342;2023-03-03T09:12:29;101489.91;;;1.55;28.50
63339;BME280;47485;51.378;-1.342;2023-03-03T09:14:59;101491.80;;;3.93;27.93
63339;BME280;47485;51.378;-1.342;2023-03-03T09:17:30;101490.98;;;5.31;27.21
63339;BME280;47485;51.378;-1.342;2023-03-03T09:20:01;101492.75;;;2.89;28.20
63339;BME280;47485;51.378;-1.342;2023-03-03T09:22:38;101490.77;;;4.17;27.14
63339;BME280;47485;51.378;-1.342;2023-03-03T09:25:17;101493.94;;;2.79;27.68
63339;BME280;47485;51.378;-1.342;2023-03-03T09:27:47;101495.10;;;1.47;27.95
63339;BME280;47485;51.378;-1.342;2023-03-03T09:30:29;101495.20;;;3.33;27.45
63339;BME280;47485;51.378;-1.342;2023-03-03T09:33:01;101499.86;;;3.64;27.41
63339;BME280;47485;51.378;-1.342;2023-03-03T09:35:36;101501.31;;;2.20;27.49
63339;BME280;47485;51.378;-1.342;2023-03-03T09:38:14;101501.69;;;3.94;26.64
63339;BME280;47485;51.378;-1.342;2023-03-03T09:40:54;101501.75;;;2.99;26.96
63339;BME280;47485;51.378;-1.342;2023-03-03T09:43:28;101500.65;;;2.82;26.15
63339;BME280;47485;51.378;-1.342;2023-03-03T09:46:03;101511.73;;;2.01;27.31
63339;BME280;47485;51.378;-1.342;2023-03-03T09:48:49;101508.68;;;4.17;25.77
63339;BME280;47485;51.378;-1.342;2023-03-03T09:51:32;101509.53;;;2.55;26.43
63339;BME280;47485;51.378;-1.342;2023-03-03T09:54:11;101510.28;;;3.69;26.21
63339;BME280;47485;51.378;-1.342;2023-03-03T09:56:43;101512.12;;;4.37;25.48
63339;BME280;47485;51.378;-1.342;2023-03-03T09:59:21;101513.39;;;3.70;26.19
63339;BME280;47485;51.378;-1.342;2023-03-03T10:02:02;101515.43;;;3.16;26.08
63339;BME280;47485;51.378;-1.342;2023-03-03T10:04:41;101514.36;;;2.73;26.52
63339;BME280;47485;51.378;-1.342;2023-03-03T10:07:18;101513.57;;;4.20;25.78
63339;BME280;47485;51.378;-1.342;2023-03-03T10:10:01;101514.38;;;5.23;25.05
63339;BME280;47485;51.378;-1.342;2023-03-03T10:12:34;101516.73;;;3.04;26.42
63339;BME280;47485;51.378;-1.342;2023-03-03T10:15:14;101517.50;;;3.66;25.66
63339;BME280;47485;51.378;-1.342;2023-03-03T10:17:48;101518.69;;;4.01;25.01
63339;BME280;47485;51.378;-1.342;2023-03-03T10:20:25;101519.65;;;5.94;24.11
63339;BME280;47485;51.378;-1.342;2023-03-03T10:23:01;101521.06;;;4.43;25.05
63339;BME280;47485;51.378;-1.342;2023-03-03T10:25:38;101516.50;;;3.95;25.48
63339;BME280;47485;51.378;-1.342;2023-03-03T10:28:24;101517.17;;;3.07;26.22
63339;BME280;47485;51.378;-1.342;2023-03-03T10:31:00;101519.69;;;5.36;24.95
63339;BME280;47485;51.378;-1.342;2023-03-03T10:33:40;101519.54;;;3.09;26.05
63339;BME280;47485;51.378;-1.342;2023-03-03T10:36:24;101518.10;;;2.99;25.30
63339;BME280;47485;51.378;-1.342;2023-03-03T10:39:04;101523.27;;;1.99;25.78
63339;BME280;47485;51.378;-1.342;2023-03-03T10:41:44;101522.25;;;4.11;24.95
63339;BME280;47485;51.378;-1.342;2023-03-03T10:44:28;101522.29;;;4.70;24.52
63339;BME280;47485;51.378;-1.342;2023-03-03T10:47:13;101524.39;;;1.71;26.37
63339;BME280;47485;51.378;-1.342;2023-03-03T10:49:55;101525.21;;;0.85;27.52
63339;BME280;47485;51.378;-1.342;2023-03-03T10:52:32;101524.84;;;3.29;25.55
63339;BME280;47485;51.378;-1.342;2023-03-03T10:55:17;101524.66;;;2.93;26.11
63339;BME280;47485;51.378;-1.342;2023-03-03T10:57:52;101526.80;;;2.40;26.18
63339;BME280;47485;51.378;-1.342;2023-03-03T11:00:24;101531.59;;;3.09;25.59
63339;BME280;47485;51.378;-1.342;2023-03-03T11:03:15;101530.97;;;1.68;26.13
63339;BME280;47485;51.378;-1.342;2023-03-03T11:05:48;101532.28;;;3.25;25.31
63339;BME280;47485;51.378;-1.342;2023-03-03T11:08:21;101536.34;;;2.18;26.21
63339;BME280;47485;51.378;-1.342;2023-03-03T11:11:01;101542.93;;;0.24;26.90
63339;BME280;47485;51.378;-1.342;2023-03-03T11:13:39;101544.63;;;1.20;26.63
63339;BME280;47485;51.378;-1.342;2023-03-03T11:16:21;101540.22;;;3.82;24.63
63339;BME280;47485;51.378;-1.342;2023-03-03T11:19:00;101539.56;;;4.69;24.12
63339;BME280;47485;51.378;-1.342;2023-03-03T11:21:36;101542.11;;;3.00;25.66
63339;BME280;47485;51.378;-1.342;2023-03-03T11:24:18;101548.12;;;3.67;24.70
63339;BME280;47485;51.378;-1.342;2023-03-03T11:27:00;101545.21;;;2.69;25.01
63339;BME280;47485;51.378;-1.342;2023-03-03T11:29:38;101547.76;;;3.46;25.25
63339;BME280;47485;51.378;-1.342;2023-03-03T11:32:16;101549.15;;;4.27;23.89
63339;BME280;47485;51.378;-1.342;2023-03-03T11:34:53;101549.19;;;3.94;23.85
63339;BME280;47485;51.378;-1.342;2023-03-03T11:37:26;101551.66;;;3.28;24.39
63339;BME280;47485;51.378;-1.342;2023-03-03T11:40:11;101552.64;;;4.53;24.21
63339;BME280;47485;51.378;-1.342;2023-03-03T11:42:51;101555.23;;;2.27;25.60
63339;BME280;47485;51.378;-1.342;2023-03-03T11:45:22;101550.65;;;4.10;25.05
63339;BME280;47485;51.378;-1.342;2023-03-03T11:47:58;101549.91;;;1.05;26.12
63339;BME280;47485;51.378;-1.342;2023-03-03T11:50:32;101547.85;;;4.65;24.44
63339;BME280;47485;51.378;-1.342;2023-03-03T11:53:14;101545.83;;;3.04;24.62
63339;BME280;47485;51.378;-1.342;2023-03-03T11:55:51;101542.42;;;3.42;24.14
63339;BME280;47485;51.378;-1.342;2023-03-03T11:58:24;101543.37;;;2.71;25.80
63339;BME280;47485;51.378;-1.342;2023-03-03T12:00:56;101543.27;;;5.07;23.40
63339;BME280;47485;51.378;-1.342;2023-03-03T12:03:31;101537.23;;;5.47;23.56
63339;BME280;47485;51.378;-1.342;2023-03-03T12:06:08;101542.05;;;3.54;23.79
63339;BME280;47485;51.378;-1.342;2023-03-03T12:08:51;101541.79;;;4.06;24.20
63339;BME280;47485;51.378;-1.342;2023-03-03T12:11:25;101541.99;;;3.41;23.64
63339;BME280;47485;51.378;-1.342;2023-03-03T12:13:58;101540.43;;;3.88;24.09
63339;BME280;47485;51.378;-1.342;2023-03-03T12:16:37;101536.77;;;4.36;23.39
63339;BME280;47485;51.378;-1.342;2023-03-03T12:19:14;101537.61;;;4.46;23.60
63339;BME280;47485;51.378;-1.342;2023-03-03T12:21:53;101539.05;;;5.98;22.25
63339;BME280;47485;51.378;-1.342;2023-03-03T12:24:33;101534.78;;;6.27;22.51
63339;BME280;47485;51.378;-1.342;2023-03-03T12:27:13;101532.37;;;4.60;24.62
63339;BME280;47485;51.378;-1.342;2023-03-03T12:29:54;101529.15;;;5.60;24.45
63339;BME280;47485;51.378;-1.342;2023-03-03T12:32:36;101526.38;;;6.04;24.07
63339;BME280;47485;51.378;-1.342;2023-03-03T12:35:11;101524.49;;;5.44;24.28
63339;BME280;47485;51.378;-1.342;2023-03-03T12:37:50;101521.79;;;5.50;24.52
63339;BME280;47485;51.378;-1.342;2023-03-03T12:40:24;101523.05;;;4.76;23.62
63339;BME280;47485;51.378;-1.342;2023-03-03T12:43:04;101523.13;;;5.13;23.93
63339;BME280;47485;51.378;-1.342;2023-03-03T12:45:39;101521.57;;;6.53;23.30
63339;BME280;47485;51.378;-1.342;2023-03-03T12:48:12;101518.13;;;5.97;23.62
63339;BME280;47485;51.378;-1.342;2023-03-03T12:50:50;101520.25;;;4.12;24.32
63339;BME280;47485;51.378;-1.342;2023-03-03T12:53:28;101521.80;;;4.76;24.14
63339;BME280;47485;51.378;-1.342;2023-03-03T12:56:04;101518.44;;;5.94;23.06
63339;BME280;47485;51.378;-1.342;2023-03-03T12:58:39;101517.04;;;4.81;23.99
63339;BME280;47485;51.378;-1.342;2023-03-03T13:01:17;101520.35;;;3.42;25.45
63339;BME280;47485;51.378;-1.342;2023-03-03T13:03:56;101515.12;;;3.13;24.81
63339;BME280;47485;51.378;-1.342;2023-03-03T13:06:30;101513.18;;;4.69;24.13
63339;BME280;47485;51.378;-1.342;2023-03-03T13:09:12;101511.08;;;4.01;23.92
63339;BME280;47485;51.378;-1.342;2023-03-03T13:12:53;101512.98;;;5.28;23.05